Time;durP1;ratioP1;P1;durP2;ratioP2;P2;SDS_P1;SDS_P2;PMS_P1;PMS_P2;Temp;Humidity;BMP_temperature;BMP_pressure;BME280_temperature;BME280_humidity;BME280_pressure;Samples;Min_cycle;Max_cycle;Signal;HPM_P1;HPM_P2
2023/03/04 00:02:18;;;;;;;114.93;38.80;;;;;;;1.00;98.98;96591.75;5049593;28;20446;-73
2023/03/04 00:04:44;;;;;;;133.80;39.90;;;;;;;0.88;100.00;96598.28;5049631;28;20355;-73
2023/03/04 00:07:15;;;;;;;104.93;38.65;;;;;;;0.73;100.00;96591.72;5049337;28;20044;-73
2023/03/04 00:09:42;;;;;;;118.18;41.33;;;;;;;0.65;100.00;96589.47;5049725;28;20114;-73
2023/03/04 00:12:09;;;;;;;122.10;40.90;;;;;;;0.62;100.00;96595.31;5048917;28;20056;-73
2023/03/04 00:14:36;;;;;;;119.50;42.05;;;;;;;0.57;100.00;96591.75;5049210;28;20052;-72
2023/03/04 00:17:03;;;;;;;115.43;41.03;;;;;;;0.55;100.00;96597.38;5048956;28;20045;-73
2023/03/04 00:19:29;;;;;;;117.55;40.65;;;;;;;0.46;100.00;96596.97;5049630;28;20065;-73
2023/03/04 00:21:56;;;;;;;122.57;41.20;;;;;;;0.44;100.00;96595.63;5049416;28;20053;-73
2023/03/04 00:24:23;;;;;;;117.45;40.70;;;;;;;0.38;100.00;96594.75;5049186;28;20044;-73
2023/03/04 00:26:50;;;;;;;111.50;40.00;;;;;;;0.32;100.00;96589.56;5049297;28;20053;-73
2023/03/04 00:29:18;;;;;;;130.85;43.55;;;;;;;0.29;100.00;96600.75;5048822;28;20049;-73
2023/03/04 00:31:44;;;;;;;115.85;41.55;;;;;;;0.34;100.00;96600.84;5049255;28;20078;-72
2023/03/04 00:34:10;;;;;;;123.43;42.35;;;;;;;0.31;100.00;96609.34;5048842;28;20045;-73
2023/03/04 00:36:37;;;;;;;126.80;43.25;;;;;;;0.25;100.00;96609.28;5049180;28;20056;-73
2023/03/04 00:39:03;;;;;;;131.23;43.55;;;;;;;0.30;100.00;96605.06;5048780;28;20399;-73
2023/03/04 00:41:30;;;;;;;128.85;41.10;;;;;;;0.38;100.00;96610.81;5051025;28;20057;-72
2023/03/04 00:43:56;;;;;;;117.38;41.08;;;;;;;0.46;100.00;96612.25;5053153;28;20052;-73
2023/03/04 00:46:24;;;;;;;111.65;38.63;;;;;;;0.51;100.00;96609.63;5052457;28;20049;-73
2023/03/04 00:48:51;;;;;;;130.82;40.58;;;;;;;0.50;100.00;96608.00;5052659;28;20053;-73
2023/03/04 00:51:17;;;;;;;120.45;41.72;;;;;;;0.40;100.00;96615.91;5052174;28;20061;-73
2023/03/04 00:53:43;;;;;;;128.40;43.85;;;;;;;0.34;100.00;96608.88;5053116;28;20045;-73
2023/03/04 00:56:10;;;;;;;126.32;41.80;;;;;;;0.35;100.00;96607.81;5052467;28;20053;-73
2023/03/04 00:58:38;;;;;;;122.75;43.88;;;;;;;0.28;100.00;96601.81;5044622;28;20104;-72
2023/03/04 01:01:05;;;;;;;131.50;45.33;;;;;;;0.27;100.00;96600.22;5052214;28;20045;-73
2023/03/04 01:03:33;;;;;;;134.85;44.15;;;;;;;0.25;100.00;96595.88;5052503;28;20056;-73
2023/03/04 01:06:00;;;;;;;121.97;43.17;;;;;;;0.25;100.00;96593.19;5052213;28;20721;-73
2023/03/04 01:08:26;;;;;;;132.55;45.22;;;;;;;0.23;100.00;96592.66;5052331;28;20048;-73
2023/03/04 01:10:53;;;;;;;133.55;45.25;;;;;;;0.25;100.00;96590.53;5052364;28;20052;-73
2023/03/04 01:13:30;;;;;;;128.77;44.45;;;;;;;0.30;100.00;96586.31;5051988;28;20045;-73
2023/03/04 01:15:56;;;;;;;135.02;43.80;;;;;;;0.28;100.00;96586.56;5052823;28;20053;-73
2023/03/04 01:18:23;;;;;;;135.65;45.35;;;;;;;0.22;100.00;96577.66;5052799;28;20049;-73
2023/03/04 01:20:51;;;;;;;127.40;45.05;;;;;;;0.17;100.00;96582.13;5052673;28;20040;-73
2023/03/04 01:23:18;;;;;;;141.27;47.13;;;;;;;0.17;100.00;96577.56;5051852;28;20052;-72
2023/03/04 01:25:47;;;;;;;135.32;44.28;;;;;;;0.14;100.00;96574.56;5051931;28;20124;-72
2023/03/04 01:28:14;;;;;;;127.32;44.05;;;;;;;0.11;100.00;96565.19;5052122;28;20048;-72
2023/03/04 01:30:40;;;;;;;137.35;46.60;;;;;;;0.11;100.00;96567.84;5051956;28;20041;-73
2023/03/04 01:33:06;;;;;;;133.40;47.08;;;;;;;0.10;100.00;96566.22;5051914;28;20049;-75
2023/03/04 01:35:33;;;;;;;139.65;45.38;;;;;;;0.12;100.00;96574.00;5040107;28;20106;-75
2023/03/04 01:38:01;;;;;;;128.13;43.95;;;;;;;0.14;100.00;96569.22;5051904;28;20048;-75
2023/03/04 01:40:27;;;;;;;130.85;42.78;;;;;;;0.07;100.00;96564.03;5051742;28;20067;-75
2023/03/04 01:42:54;;;;;;;133.65;43.75;;;;;;;0.07;100.00;96558.69;5052186;28;20052;-75
2023/03/04 01:45:21;;;;;;;143.10;44.13;;;;;;;0.13;100.00;96568.41;5051121;28;20045;-75
2023/03/04 01:47:49;;;;;;;133.27;43.70;;;;;;;0.14;100.00;96564.66;5051853;28;20053;-75
2023/03/04 01:50:20;;;;;;;133.55;44.38;;;;;;;0.12;100.00;96565.97;5051479;28;20056;-74
2023/03/04 01:52:47;;;;;;;135.68;42.70;;;;;;;0.15;100.00;96563.59;5051034;28;20053;-71
2023/03/04 01:55:18;;;;;;;141.40;44.33;;;;;;;0.07;100.00;96561.34;5051625;28;20123;-74
2023/03/04 01:57:46;;;;;;;138.05;44.30;;;;;;;0.04;100.00;96561.03;5052157;28;20048;-72
2023/03/04 02:00:22;;;;;;;142.07;45.35;;;;;;;0.02;100.00;96553.25;5050778;28;20577;-72
2023/03/04 02:02:52;;;;;;;123.82;44.70;;;;;;;0.00;100.00;96550.03;5051685;28;20049;-74
2023/03/04 02:05:19;;;;;;;132.55;45.45;;;;;;;-0.04;100.00;96544.34;5051256;28;20075;-73
2023/03/04 02:07:46;;;;;;;139.45;47.72;;;;;;;-0.03;100.00;96545.97;5051989;28;20044;-72
2023/03/04 02:10:13;;;;;;;133.32;45.50;;;;;;;-0.03;100.00;96550.50;5050521;28;20040;-75
2023/03/04 02:12:41;;;;;;;131.30;44.92;;;;;;;-0.01;100.00;96537.66;5051247;28;20052;-72
2023/03/04 02:15:08;;;;;;;132.27;45.20;;;;;;;0.02;100.00;96542.53;5050352;28;20053;-72
2023/03/04 02:17:35;;;;;;;107.50;40.78;;;;;;;0.08;100.00;96538.88;5052908;28;20648;-73
2023/03/04 02:20:11;;;;;;;122.97;43.05;;;;;;;0.04;100.00;96537.75;5053642;28;20484;-73
2023/03/04 02:22:51;;;;;;;125.28;44.42;;;;;;;-0.04;100.00;96535.50;5053041;28;20041;-73
2023/03/04 02:25:24;;;;;;;127.28;42.63;;;;;;;0.02;100.00;96531.03;5051485;28;20063;-73
2023/03/04 02:27:51;;;;;;;126.37;44.33;;;;;;;0.02;100.00;96531.84;5051532;28;20083;-73
2023/03/04 02:30:21;;;;;;;133.15;44.97;;;;;;;-0.06;100.00;96535.72;5053661;28;20118;-73
2023/03/04 02:32:47;;;;;;;137.48;45.80;;;;;;;-0.06;100.00;96532.25;5056963;28;20414;-73
2023/03/04 02:35:17;;;;;;;127.45;42.33;;;;;;;-0.03;100.00;96531.75;5052179;28;20079;-73
2023/03/04 02:37:43;;;;;;;129.38;44.65;;;;;;;-0.04;100.00;96532.81;5051196;28;20044;-73
2023/03/04 02:40:16;;;;;;;128.50;45.17;;;;;;;-0.10;100.00;96523.91;5050602;28;20048;-72
2023/03/04 02:42:44;;;;;;;123.53;43.58;;;;;;;-0.04;100.00;96530.97;5043652;28;20075;-73
2023/03/04 02:45:35;;;;;;;115.82;43.03;;;;;;;-0.08;100.00;96524.47;5051318;28;20052;-72
2023/03/04 02:48:02;;;;;;;128.52;45.17;;;;;;;-0.15;100.00;96533.75;5053986;28;20041;-73
2023/03/04 02:50:33;;;;;;;130.13;43.53;;;;;;;-0.10;100.00;96531.13;5058508;28;20416;-72
2023/03/04 02:53:00;;;;;;;116.25;41.67;;;;;;;-0.06;100.00;96534.91;5057263;28;20048;-73
2023/03/04 02:55:27;;;;;;;123.22;43.88;;;;;;;-0.09;100.00;96527.41;5057585;28;20048;-73
2023/03/04 02:57:53;;;;;;;123.85;42.58;;;;;;;-0.03;100.00;96529.09;5057255;28;20049;-73
2023/03/04 03:00:20;;;;;;;120.93;43.47;;;;;;;-0.03;100.00;96534.44;5055973;28;20072;-74
2023/03/04 03:02:48;;;;;;;105.07;40.53;;;;;;;0.01;100.00;96530.22;5057569;28;20044;-73
2023/03/04 03:05:16;;;;;;;122.75;41.70;;;;;;;-0.03;100.00;96526.41;5056251;28;20041;-73
2023/03/04 03:07:42;;;;;;;116.35;40.05;;;;;;;0.02;100.00;96531.84;5054122;28;20048;-73
2023/03/04 03:10:10;;;;;;;120.10;40.90;;;;;;;0.06;100.00;96541.00;5051801;28;20045;-74
2023/03/04 03:12:36;;;;;;;117.88;41.97;;;;;;;0.00;100.00;96533.97;5052623;28;20049;-73
2023/03/04 03:15:03;;;;;;;121.88;40.85;;;;;;;-0.12;100.00;96538.59;5051648;28;20044;-75
2023/03/04 03:17:30;;;;;;;130.02;42.72;;;;;;;-0.12;100.00;96536.72;5052214;28;20045;-72
2023/03/04 03:19:58;;;;;;;125.72;42.47;;;;;;;-0.23;100.00;96539.50;5052117;28;20094;-73
2023/03/04 03:22:24;;;;;;;129.02;44.45;;;;;;;-0.34;100.00;96539.34;5051046;28;20040;-75
2023/03/04 03:24:51;;;;;;;131.48;44.75;;;;;;;-0.37;100.00;96539.81;5051452;28;20045;-74
2023/03/04 03:27:17;;;;;;;137.35;47.42;;;;;;;-0.44;100.00;96533.81;5049653;28;20045;-75
2023/03/04 03:29:44;;;;;;;124.35;43.85;;;;;;;-0.47;100.00;96539.69;5050520;28;20041;-74
2023/03/04 03:32:15;;;;;;;115.63;42.63;;;;;;;-0.46;100.00;96529.78;5040122;28;20044;-75
2023/03/04 03:34:43;;;;;;;124.20;43.85;;;;;;;-0.49;100.00;96536.41;5061352;28;20495;-75
2023/03/04 03:37:11;;;;;;;125.97;44.97;;;;;;;-0.58;100.00;96532.50;5050456;28;20049;-74
2023/03/04 03:39:38;;;;;;;134.95;45.72;;;;;;;-0.65;100.00;96526.53;5050957;28;20610;-75
2023/03/04 03:42:04;;;;;;;124.88;45.13;;;;;;;-0.68;100.00;96532.34;5049957;28;20053;-75
2023/03/04 03:44:31;;;;;;;131.35;45.50;;;;;;;-0.72;100.00;96531.22;5050867;28;20052;-75
2023/03/04 03:46:57;;;;;;;119.05;44.95;;;;;;;-0.66;100.00;96530.25;5051844;28;20048;-75
2023/03/04 03:49:24;;;;;;;121.88;43.38;;;;;;;-0.58;100.00;96527.97;5049713;28;20041;-75
2023/03/04 03:51:50;;;;;;;119.00;43.42;;;;;;;-0.67;100.00;96536.66;5052327;28;20051;-72
2023/03/04 03:54:18;;;;;;;132.75;43.65;;;;;;;-0.69;100.00;96530.72;5050913;28;20053;-74
2023/03/04 03:56:45;;;;;;;124.40;43.88;;;;;;;-0.64;100.00;96538.84;5049789;28;20049;-74
2023/03/04 03:59:11;;;;;;;121.57;44.58;;;;;;;-0.64;100.00;96522.78;5049428;28;20047;-74
2023/03/04 04:01:38;;;;;;;112.72;40.70;;;;;;;-0.56;100.00;96530.44;5049448;28;20500;-75
2023/03/04 04:04:05;;;;;;;117.22;42.47;;;;;;;-0.55;100.00;96532.03;5049107;28;20045;-75
2023/03/04 04:06:31;;;;;;;121.60;44.35;;;;;;;-0.62;100.00;96524.19;5049120;28;20099;-74
2023/03/04 04:08:58;;;;;;;121.10;43.42;;;;;;;-0.63;100.00;96524.41;5049746;28;20045;-74
2023/03/04 04:11:26;;;;;;;118.18;42.53;;;;;;;-0.66;100.00;96530.25;5048999;28;20049;-74
2023/03/04 04:13:53;;;;;;;115.07;40.88;;;;;;;-0.65;100.00;96527.34;5049661;28;20049;-74
2023/03/04 04:16:21;;;;;;;118.45;42.20;;;;;;;-0.51;100.00;96527.84;5050850;28;20052;-75
2023/03/04 04:18:47;;;;;;;100.47;38.92;;;;;;;-0.52;100.00;96526.22;5053125;28;20053;-72
2023/03/04 04:21:14;;;;;;;120.25;41.17;;;;;;;-0.54;100.00;96522.97;5050267;28;20052;-72
2023/03/04 04:23:41;;;;;;;117.20;43.00;;;;;;;-0.54;100.00;96520.28;5052646;28;20041;-73
2023/03/04 04:26:07;;;;;;;112.13;39.75;;;;;;;-0.50;100.00;96523.28;5052327;28;20060;-73
2023/03/04 04:28:35;;;;;;;117.60;42.58;;;;;;;-0.57;100.00;96528.81;5053853;28;20041;-73
2023/03/04 04:31:01;;;;;;;115.10;41.20;;;;;;;-0.66;100.00;96522.25;5055699;28;20045;-75
2023/03/04 04:33:28;;;;;;;113.90;42.00;;;;;;;-0.85;100.00;96524.31;5054940;28;20056;-72
2023/03/04 04:35:54;;;;;;;123.47;42.83;;;;;;;-0.89;100.00;96532.03;5052840;28;20432;-72
2023/03/04 04:38:21;;;;;;;114.28;42.33;;;;;;;-0.86;100.00;96526.19;5053006;28;20037;-72
2023/03/04 04:40:47;;;;;;;122.80;45.05;;;;;;;-0.88;100.00;96525.63;5053166;28;20045;-73
2023/03/04 04:43:14;;;;;;;131.82;44.33;;;;;;;-0.91;100.00;96522.59;5052422;28;20045;-73
2023/03/04 04:45:41;;;;;;;112.63;42.67;;;;;;;-0.99;100.00;96525.66;5053259;28;20598;-73
2023/03/04 04:48:08;;;;;;;120.80;45.10;;;;;;;-1.08;100.00;96517.25;5052685;28;20041;-75
2023/03/04 04:50:34;;;;;;;117.68;43.00;;;;;;;-1.13;100.00;96520.63;5052968;28;20048;-73
2023/03/04 04:53:01;;;;;;;120.80;45.28;;;;;;;-1.16;100.00;96525.63;5052688;28;20044;-74
2023/03/04 04:55:28;;;;;;;129.52;44.40;;;;;;;-1.20;100.00;96517.31;5052821;28;20063;-75
2023/03/04 04:57:54;;;;;;;128.02;44.95;;;;;;;-1.23;100.00;96511.63;5053020;28;20041;-73
2023/03/04 05:00:21;;;;;;;121.32;44.88;;;;;;;-1.28;100.00;96517.66;5049857;28;20036;-75
2023/03/04 05:02:49;;;;;;;118.68;44.45;;;;;;;-1.24;100.00;96518.00;5047148;28;20048;-73
2023/03/04 05:05:15;;;;;;;128.60;45.70;;;;;;;-1.29;100.00;96520.59;5052465;28;20052;-72
2023/03/04 05:07:42;;;;;;;121.50;44.95;;;;;;;-1.34;100.00;96522.13;5053129;28;20049;-75
2023/03/04 05:10:10;;;;;;;116.07;42.20;;;;;;;-1.30;100.00;96519.78;5052332;28;20080;-75
2023/03/04 05:12:36;;;;;;;122.97;44.97;;;;;;;-1.34;100.00;96521.31;5053179;28;20056;-73
2023/03/04 05:15:03;;;;;;;121.68;43.03;;;;;;;-1.34;100.00;96524.78;5051997;28;20045;-75
2023/03/04 05:17:30;;;;;;;127.07;44.78;;;;;;;-1.37;100.00;96527.09;5052518;28;20041;-74
2023/03/04 05:19:57;;;;;;;115.00;43.42;;;;;;;-1.40;100.00;96531.09;5053162;28;20041;-73
2023/03/04 05:22:24;;;;;;;123.60;45.42;;;;;;;-1.42;100.00;96533.16;5052908;28;20488;-75
2023/03/04 05:24:50;;;;;;;126.22;45.78;;;;;;;-1.43;100.00;96531.53;5052978;28;20041;-75
2023/03/04 05:27:17;;;;;;;127.93;45.22;;;;;;;-1.43;100.00;96528.88;5051106;28;20045;-75
2023/03/04 05:29:45;;;;;;;119.68;44.28;;;;;;;-1.44;100.00;96527.25;5052708;28;20049;-75
2023/03/04 05:32:12;;;;;;;123.72;44.00;;;;;;;-1.44;100.00;96534.47;5052824;28;20041;-75
2023/03/04 05:34:38;;;;;;;119.90;42.80;;;;;;;-1.39;100.00;96538.03;5057581;28;20202;-75
2023/03/04 05:37:07;;;;;;;113.85;41.67;;;;;;;-1.36;100.00;96531.41;5057592;28;20045;-75
2023/03/04 05:39:34;;;;;;;123.75;42.80;;;;;;;-1.40;100.00;96536.44;5055966;28;20045;-74
2023/03/04 05:42:00;;;;;;;121.57;44.83;;;;;;;-1.41;100.00;96532.13;5057359;28;20069;-75
2023/03/04 05:44:27;;;;;;;114.47;44.55;;;;;;;-1.41;100.00;96529.47;5056963;28;20455;-75
2023/03/04 05:46:53;;;;;;;121.18;44.13;;;;;;;-1.37;100.00;96540.47;5050838;28;20400;-75
2023/03/04 05:49:20;;;;;;;113.00;41.45;;;;;;;-1.35;100.00;96535.72;5056457;28;20048;-75
2023/03/04 05:51:46;;;;;;;117.57;40.63;;;;;;;-1.30;100.00;96529.66;5056168;28;20123;-73
2023/03/04 05:54:14;;;;;;;109.10;41.17;;;;;;;-1.27;100.00;96534.50;5054969;28;20073;-73
2023/03/04 05:56:41;;;;;;;115.75;41.22;;;;;;;-1.38;100.00;96534.31;5054527;28;20132;-74
2023/03/04 05:59:08;;;;;;;111.32;41.88;;;;;;;-1.36;100.00;96542.91;5053001;28;20048;-75
2023/03/04 06:01:34;;;;;;;118.40;42.25;;;;;;;-1.23;100.00;96546.34;5052237;28;20041;-75
2023/03/04 06:04:01;;;;;;;109.80;40.40;;;;;;;-1.23;100.00;96551.69;5052105;28;20049;-75
2023/03/04 06:06:27;;;;;;;103.38;39.72;;;;;;;-1.21;100.00;96554.94;5051762;28;20041;-74
2023/03/04 06:08:54;;;;;;;106.22;41.35;;;;;;;-1.27;100.00;96556.69;5049950;28;20044;-75
2023/03/04 06:11:22;;;;;;;112.90;40.00;;;;;;;-1.17;100.00;96550.75;5051325;28;20041;-74
2023/03/04 06:13:48;;;;;;;106.85;39.13;;;;;;;-1.16;100.00;96557.69;5051587;28;20126;-74
2023/03/04 06:16:14;;;;;;;103.35;40.75;;;;;;;-1.21;100.00;96558.41;5051123;28;20044;-75
2023/03/04 06:18:41;;;;;;;108.88;41.83;;;;;;;-1.29;100.00;96549.97;5051551;28;20051;-75
2023/03/04 06:21:07;;;;;;;116.05;39.35;;;;;;;-1.29;100.00;96558.00;5051179;28;20522;-75
2023/03/04 06:23:34;;;;;;;114.72;43.25;;;;;;;-1.34;100.00;96548.81;5051433;28;20040;-75
2023/03/04 06:26:01;;;;;;;106.10;40.22;;;;;;;-1.35;100.00;96560.56;5051303;28;20048;-75
2023/03/04 06:28:29;;;;;;;108.68;41.53;;;;;;;-1.30;100.00;96557.19;5051019;28;20116;-75
2023/03/04 06:30:56;;;;;;;111.50;41.38;;;;;;;-1.24;100.00;96564.25;5051530;28;20041;-75
2023/03/04 06:33:24;;;;;;;112.78;41.28;;;;;;;-1.19;100.00;96563.53;5050187;28;20041;-74
2023/03/04 06:35:54;;;;;;;103.97;40.70;;;;;;;-1.12;100.00;96569.53;5050921;28;20424;-75
2023/03/04 06:38:20;;;;;;;99.40;41.25;;;;;;;-1.13;100.00;96573.25;5050447;28;20037;-75
2023/03/04 06:40:47;;;;;;;104.30;40.97;;;;;;;-1.10;100.00;96578.13;5051082;28;20523;-75
2023/03/04 06:43:13;;;;;;;110.28;41.08;;;;;;;-1.09;100.00;96571.75;5049263;28;20063;-76
2023/03/04 06:45:41;;;;;;;107.13;42.42;;;;;;;-1.02;100.00;96577.75;5048370;28;20048;-75
2023/03/04 06:48:08;;;;;;;107.45;41.22;;;;;;;-1.00;100.00;96578.31;5048334;28;20045;-76
2023/03/04 06:50:35;;;;;;;118.90;40.53;;;;;;;-0.91;100.00;96582.22;5049285;28;20045;-75
2023/03/04 06:53:01;;;;;;;100.53;39.17;;;;;;;-0.89;100.00;96585.50;5047873;28;20052;-75
2023/03/04 06:55:28;;;;;;;106.93;40.30;;;;;;;-0.77;100.00;96582.75;5048151;28;20049;-75
2023/03/04 06:57:54;;;;;;;99.78;38.25;;;;;;;-0.71;100.00;96586.34;5048170;28;20045;-76
2023/03/04 07:00:22;;;;;;;91.35;36.53;;;;;;;-0.64;100.00;96586.97;5044597;28;20049;-75
2023/03/04 07:02:51;;;;;;;103.90;37.72;;;;;;;-0.62;100.00;96585.69;5043017;28;20140;-76
2023/03/04 07:05:17;;;;;;;99.57;37.20;;;;;;;-0.46;100.00;96588.63;5047422;28;20074;-75
2023/03/04 07:07:44;;;;;;;98.38;37.03;;;;;;;-0.41;100.00;96591.41;5048478;28;20557;-76
2023/03/04 07:10:14;;;;;;;94.22;36.00;;;;;;;-0.29;100.00;96600.97;5048290;28;20045;-76
2023/03/04 07:12:45;;;;;;;115.47;40.08;;;;;;;-0.28;100.00;96591.88;5049272;28;20552;-76
2023/03/04 07:15:12;;;;;;;93.03;34.65;;;;;;;-0.20;100.00;96597.91;5049881;28;20091;-75
2023/03/04 07:17:40;;;;;;;91.30;35.85;;;;;;;-0.19;100.00;96602.19;5050604;28;20053;-76
2023/03/04 07:20:10;;;;;;;88.45;35.72;;;;;;;0.00;100.00;96595.53;5050594;28;20072;-76
2023/03/04 07:22:36;;;;;;;89.60;34.70;;;;;;;0.07;99.37;96598.03;5048185;28;20060;-75
2023/03/04 07:25:03;;;;;;;91.72;34.83;;;;;;;0.21;99.03;96602.81;5047739;28;20057;-76
2023/03/04 07:27:30;;;;;;;92.07;34.40;;;;;;;0.16;98.33;96608.09;5048705;28;20055;-75
2023/03/04 07:29:56;;;;;;;80.43;33.05;;;;;;;0.13;98.42;96605.91;5041984;28;20115;-80
2023/03/04 07:32:23;;;;;;;103.70;36.25;;;;;;;0.29;98.94;96608.78;5047652;28;20049;-75
2023/03/04 07:34:49;;;;;;;86.22;34.17;;;;;;;0.41;97.69;96621.00;5047321;28;20837;-75
2023/03/04 07:37:17;;;;;;;86.15;32.20;;;;;;;0.67;96.47;96611.44;5046389;28;20052;-72
2023/03/04 07:39:44;;;;;;;92.03;32.92;;;;;;;1.06;94.17;96622.13;5046944;28;20053;-75
2023/03/04 07:42:10;;;;;;;83.70;31.60;;;;;;;1.18;91.40;96620.09;5046484;28;20052;-73
2023/03/04 07:44:36;;;;;;;81.57;30.35;;;;;;;1.15;91.07;96627.84;5046663;28;20064;-75
2023/03/04 07:47:03;;;;;;;84.03;30.65;;;;;;;1.33;90.10;96627.50;5046490;28;20594;-76
2023/03/04 07:49:29;;;;;;;78.70;29.83;;;;;;;1.36;89.68;96631.56;5045467;28;20053;-75
2023/03/04 07:51:56;;;;;;;81.68;31.25;;;;;;;1.19;90.69;96635.13;5048669;28;20089;-75
2023/03/04 07:54:24;;;;;;;82.07;29.50;;;;;;;1.37;90.04;96633.19;5046123;28;20049;-76
2023/03/04 07:56:53;;;;;;;72.53;28.50;;;;;;;1.63;88.17;96627.00;5046675;28;20048;-73
2023/03/04 07:59:19;;;;;;;62.28;26.75;;;;;;;1.80;86.84;96633.06;5046573;28;20102;-74
2023/03/04 08:01:46;;;;;;;84.57;28.33;;;;;;;1.49;86.70;96636.53;5046152;28;20057;-75
2023/03/04 08:04:13;;;;;;;75.57;27.85;;;;;;;2.09;85.57;96636.28;5044847;28;20589;-73
2023/03/04 08:06:40;;;;;;;71.38;26.40;;;;;;;1.89;84.75;96646.03;5046753;28;20056;-74
2023/03/04 08:09:09;;;;;;;68.47;28.30;;;;;;;1.98;84.06;96652.53;5046844;28;20052;-74
2023/03/04 08:11:38;;;;;;;69.35;27.40;;;;;;;2.39;83.75;96645.59;5045735;28;20041;-74
2023/03/04 08:14:05;;;;;;;71.57;27.17;;;;;;;2.65;79.26;96648.47;5045789;28;20052;-74
2023/03/04 08:16:32;;;;;;;69.85;26.60;;;;;;;2.88;78.93;96648.88;5046413;28;20066;-74
2023/03/04 08:19:01;;;;;;;62.22;25.13;;;;;;;3.82;75.47;96647.00;5046552;28;20053;-74
2023/03/04 08:21:28;;;;;;;64.55;24.58;;;;;;;4.85;70.97;96648.53;5045418;28;20048;-74
2023/03/04 08:23:57;;;;;;;70.57;25.10;;;;;;;5.45;67.44;96645.91;5046648;28;20055;-74
2023/03/04 08:26:25;;;;;;;65.22;24.00;;;;;;;5.29;66.20;96639.78;5044279;28;20404;-74
2023/03/04 08:28:55;;;;;;;61.33;23.10;;;;;;;4.76;67.62;96639.41;5046210;28;20051;-74
2023/03/04 08:31:22;;;;;;;69.55;22.83;;;;;;;4.87;66.90;96641.00;5046256;28;20048;-74
2023/03/04 08:33:50;;;;;;;65.78;24.00;;;;;;;5.11;66.13;96643.88;5046272;28;20052;-73
2023/03/04 08:36:16;;;;;;;73.82;24.80;;;;;;;5.12;65.92;96636.63;5045964;28;20060;-74
2023/03/04 08:38:43;;;;;;;73.63;23.88;;;;;;;4.55;67.52;96640.53;5046336;28;20049;-74
2023/03/04 08:41:12;;;;;;;69.05;23.40;;;;;;;5.24;66.38;96642.50;5046076;28;20044;-74
2023/03/04 08:43:39;;;;;;;65.70;23.52;;;;;;;6.17;64.09;96640.88;5046522;28;20057;-74
2023/03/04 08:46:07;;;;;;;75.05;25.23;;;;;;;4.38;67.05;96635.41;5045258;28;20045;-73
2023/03/04 08:48:34;;;;;;;69.40;24.80;;;;;;;4.26;68.58;96635.69;5046394;28;20049;-73
2023/03/04 08:51:00;;;;;;;68.55;24.27;;;;;;;4.89;67.75;96635.31;5046237;28;20064;-73
2023/03/04 08:53:27;;;;;;;77.82;23.33;;;;;;;6.32;63.59;96638.06;5045132;28;20073;-73
2023/03/04 08:55:54;;;;;;;63.70;23.20;;;;;;;5.92;62.79;96639.97;5045587;28;20045;-74
2023/03/04 08:58:20;;;;;;;65.95;23.70;;;;;;;5.75;64.09;96634.13;5045919;28;20048;-75
2023/03/04 09:00:50;;;;;;;74.15;24.48;;;;;;;5.02;65.20;96640.16;5047379;28;20057;-75
2023/03/04 09:03:19;;;;;;;63.03;23.02;;;;;;;5.18;65.56;96630.91;5052453;28;20053;-76
2023/03/04 09:05:46;;;;;;;59.78;22.30;;;;;;;5.96;63.12;96641.03;5050105;28;20420;-75
2023/03/04 09:08:13;;;;;;;55.85;23.70;;;;;;;5.94;64.00;96643.19;5050390;28;20049;-76
2023/03/04 09:10:40;;;;;;;66.00;23.17;;;;;;;6.12;64.10;96646.34;5049913;28;20055;-75
2023/03/04 09:13:07;;;;;;;65.90;22.42;;;;;;;5.79;62.90;96645.97;5049223;28;20037;-75
2023/03/04 09:15:34;;;;;;;62.17;22.20;;;;;;;5.34;65.24;96639.75;5049700;28;20080;-75
2023/03/04 09:18:01;;;;;;;54.83;21.55;;;;;;;5.68;62.77;96649.81;5049773;28;20053;-74
2023/03/04 09:20:29;;;;;;;62.25;22.40;;;;;;;5.05;63.53;96641.47;5049413;28;20056;-73
2023/03/04 09:22:56;;;;;;;63.08;22.00;;;;;;;4.60;66.17;96641.34;5049737;28;20691;-74
2023/03/04 09:25:22;;;;;;;64.43;20.80;;;;;;;4.79;66.24;96644.25;5049134;28;20049;-74
2023/03/04 09:27:49;;;;;;;73.20;22.92;;;;;;;5.46;65.63;96637.50;5049832;28;20049;-73
2023/03/04 09:30:15;;;;;;;71.22;23.27;;;;;;;5.78;66.03;96638.94;5048294;28;20045;-74
2023/03/04 09:32:42;;;;;;;60.88;21.25;;;;;;;6.04;62.44;96641.50;5049243;28;20056;-72
2023/03/04 09:35:10;;;;;;;55.13;21.83;;;;;;;5.43;62.71;96640.78;5048765;28;20045;-74
2023/03/04 09:37:38;;;;;;;58.80;21.42;;;;;;;5.03;65.11;96638.25;5049299;28;20138;-73
2023/03/04 09:40:07;;;;;;;53.05;19.30;;;;;;;5.04;66.21;96634.47;5048648;28;20048;-73
2023/03/04 09:42:37;;;;;;;64.53;21.50;;;;;;;5.14;67.83;96624.44;5049312;28;20131;-72
2023/03/04 09:45:05;;;;;;;48.22;20.60;;;;;;;5.64;69.28;96627.19;5047979;28;20056;-72
2023/03/04 09:47:34;;;;;;;48.53;18.17;;;;;;;6.51;61.60;96609.19;5048930;28;20052;-75
2023/03/04 09:50:06;;;;;;;48.10;19.20;;;;;;;6.58;59.68;96618.88;5048768;28;20053;-76
2023/03/04 09:52:44;;;;;;;51.13;19.23;;;;;;;6.67;58.88;96622.56;5049932;28;20048;-74
2023/03/04 09:55:20;;;;;;;47.35;18.13;;;;;;;7.11;59.38;96619.66;5051345;28;20048;-74
2023/03/04 09:57:53;;;;;;;56.08;19.77;;;;;;;7.98;58.05;96616.56;5049485;28;20057;-75
2023/03/04 10:00:22;;;;;;;45.28;19.00;;;;;;;7.53;55.78;96612.63;5048591;28;20567;-75
2023/03/04 10:03:06;;;;;;;53.30;18.95;;;;;;;7.11;57.24;96621.56;5049055;28;20653;-73
2023/03/04 10:05:34;;;;;;;;;;;;;;;6.85;58.83;96627.28;5045320;28;20065;-74
2023/03/04 10:08:17;;;;;;;51.40;18.20;;;;;;;6.52;60.87;96616.25;5045774;28;19943;-73
2023/03/04 10:10:44;;;;;;;;;;;;;;;6.30;62.53;96624.00;5048499;28;20052;-73
2023/03/04 10:13:16;;;;;;;50.38;18.88;;;;;;;6.38;59.27;96612.56;5043744;28;20269;-73
2023/03/04 10:15:49;;;;;;;44.97;17.17;;;;;;;6.88;57.22;96613.13;5049540;28;20060;-73
2023/03/04 10:18:19;;;;;;;;;;;;;;;6.23;60.73;96610.81;5049226;28;20518;-74
2023/03/04 10:20:57;;;;;;;49.60;18.63;;;;;;;6.45;59.52;96607.63;5048915;28;19974;-74
2023/03/04 10:23:27;;;;;;;41.67;16.67;;;;;;;6.47;61.30;96607.34;5042805;28;20423;-74
2023/03/04 10:25:54;;;;;;;59.70;19.63;;;;;;;6.13;60.34;96610.91;5048682;28;20448;-74
2023/03/04 10:28:24;;;;;;;45.60;15.82;;;;;;;6.11;61.55;96604.97;5048420;28;20671;-73
2023/03/04 10:30:57;;;;;;;43.55;15.25;;;;;;;5.86;60.44;96605.94;5048716;28;20052;-74
2023/03/04 10:33:27;;;;;;;47.10;16.67;;;;;;;5.72;60.86;96603.06;5048339;28;20068;-74
2023/03/04 10:36:12;;;;;;;53.08;16.08;;;;;;;5.91;60.07;96611.34;5049525;28;20140;-73
2023/03/04 10:38:43;;;;;;;39.78;14.90;;;;;;;6.09;61.38;96600.94;5042300;28;20048;-74
2023/03/04 10:41:15;;;;;;;51.65;15.98;;;;;;;6.53;61.59;96600.81;5047913;28;20045;-73
2023/03/04 10:43:44;;;;;;;39.97;14.38;;;;;;;6.76;59.10;96593.78;5042119;28;20724;-74
2023/03/04 10:46:11;;;;;;;40.97;13.68;;;;;;;6.10;59.16;96586.31;5028009;28;20124;-73
2023/03/04 10:48:40;;;;;;;54.17;15.07;;;;;;;6.10;61.50;96591.72;5028444;28;20141;-73
2023/03/04 10:51:18;;;;;;;46.40;14.20;;;;;;;6.26;59.16;96590.50;5028253;28;20052;-75
2023/03/04 10:53:48;;;;;;;46.90;14.32;;;;;;;6.29;58.18;96595.34;5029421;28;20053;-73
2023/03/04 10:56:37;;;;;;;45.30;14.23;;;;;;;6.13;60.08;96591.16;5028467;28;20124;-73
2023/03/04 10:59:31;;;;;;;42.38;14.55;;;;;;;6.26;60.68;96585.91;5027974;28;20112;-73
2023/03/04 11:01:59;;;;;;;43.63;14.75;;;;;;;6.01;60.02;96588.84;5026624;28;20056;-75
2023/03/04 11:04:27;;;;;;;43.78;14.10;;;;;;;6.29;61.49;96579.13;5026596;28;20042;-76
2023/03/04 11:06:54;;;;;;;41.42;14.32;;;;;;;6.23;60.08;96580.25;5027641;28;20060;-75
2023/03/04 11:09:25;;;;;;;44.47;13.48;;;;;;;6.26;59.97;96571.56;5026890;28;20129;-74
2023/03/04 11:11:53;;;;;;;49.58;14.57;;;;;;;6.56;60.79;96567.75;5027688;28;20159;-76
2023/03/04 11:14:24;;;;;;;45.90;13.50;;;;;;;6.08;59.07;96578.50;5028182;28;20056;-76
2023/03/04 11:16:57;;;;;;;50.45;13.52;;;;;;;6.32;60.57;96577.72;5047062;28;20052;-75